Terminal Aerodrome Forecast
Issued by NWS

Home | Current Version | Previous Version | Text Only | Print | Product List | Glossary On
Versions: 1 2 3 4 5 6 7 8 9 10 11 12 13 14 15 16 17
042
FTUS44 KJAN 201736
TAFGTR
TAF
KGTR 201736Z 2018/2118 15008KT P6SM SKC
     FM211000 14009KT P6SM -RA SCT015 OVC035
     FM211500 14006KT P6SM SHRA BKN008 OVC025=

USA.gov is the U.S. government's official web portal to all federal, state and local government web resources and services.